»·PEaware :: N900TS KHND-KSNA

N900TS :: KHND-KSNA

FLIGHT INFORMATION

Flight Status: Arrived
Operator: Privately registered:
United States
More flights under this callsign
Pilot: Vlad D. (11271)
Aircraft: SOCATA TBM-900
(TBM9)
More flights by this aircraft type
Origin: KHND Henderson
United States
Destination: KSNA John Wayne-Orange Co
United States
More flights between these airports :: More routes between these airports
Route: +PALLY6 WHIGG FEYLA DSNEE4
File this flight plan on PilotEdge
Remarks:
Altitude:
(Current/Filed)
26,000ft
Speed:
(Current/Filed)
320kts
Departed: 28-Mar-19 12:14 PM
Arrived: 28-Mar-19 01:12 PM
Distance/Time
Traveled:
193nm/0:58
Distance/Time
To Go:
Arrived

Flight Plot

Page will automatically refresh every two minutes.

Flight plan parsing failed; only flown route is shown


Map Options




Map Legend


Flown Route
Filed Route
Departure Airport
Arrival Airport
Navaid (VOR, NDB)
Fix

Horizontal Profiles

Position Reports

Time Latitude Longitude Heading Altitude Ground
Speed
28-Mar-19 11:45 35.974758 -115.137855 357 2420ft 0kts
28-Mar-19 11:46 35.974758 -115.137855 357 2420ft 0kts
28-Mar-19 11:47 35.974758 -115.137855 357 2420ft 0kts
28-Mar-19 11:48 35.974758 -115.137855 357 2420ft 0kts
28-Mar-19 11:49 35.974758 -115.137855 357 2420ft 0kts
28-Mar-19 11:50 35.974758 -115.137855 357 2420ft 0kts
28-Mar-19 11:51 35.974758 -115.137855 357 2420ft 0kts
28-Mar-19 11:52 35.974758 -115.137855 357 2420ft 0kts
28-Mar-19 11:53 35.974758 -115.137855 357 2420ft 0kts
28-Mar-19 11:54 35.974758 -115.137855 357 2420ft 0kts
28-Mar-19 11:55 35.974758 -115.137855 357 2420ft 0kts
28-Mar-19 11:56 35.974758 -115.137855 357 2420ft 0kts
28-Mar-19 11:57 35.974758 -115.137855 357 2420ft 0kts
28-Mar-19 11:58 35.974758 -115.137855 357 2420ft 0kts
28-Mar-19 11:59 35.974758 -115.137855 357 2420ft 0kts
28-Mar-19 12:00 35.974758 -115.137855 357 2420ft 0kts
28-Mar-19 12:01 35.974758 -115.137855 357 2420ft 0kts
28-Mar-19 12:02 35.974758 -115.137855 357 2420ft 0kts
28-Mar-19 12:03 35.974758 -115.137855 357 2420ft 0kts
28-Mar-19 12:04 35.974758 -115.137855 357 2420ft 0kts
28-Mar-19 12:05 35.975185 -115.137208 66 2419ft 0kts
28-Mar-19 12:06 35.975375 -115.136941 22 2419ft 6kts
28-Mar-19 12:07 35.978140 -115.136897 359 2408ft 11kts
28-Mar-19 12:08 35.980856 -115.136274 93 2398ft 5kts
28-Mar-19 12:09 35.980853 -115.136205 93 2398ft 0kts
28-Mar-19 12:10 35.980853 -115.136205 93 2398ft 0kts
28-Mar-19 12:11 35.980853 -115.136205 93 2398ft 0kts
28-Mar-19 12:12 35.980653 -115.135248 178 2399ft 14kts
28-Mar-19 12:13 35.971427 -115.135699 182 2570ft 101kts
28-Mar-19 12:14 35.939227 -115.140292 213 4482ft 129kts
28-Mar-19 12:15 35.907713 -115.163782 188 6526ft 142kts
28-Mar-19 12:16 35.859639 -115.157922 177 7026ft 209kts
28-Mar-19 12:17 35.799250 -115.161452 190 7001ft 223kts
28-Mar-19 12:18 35.749827 -115.196483 227 7697ft 196kts
28-Mar-19 12:19 35.713804 -115.242957 228 9486ft 180kts
28-Mar-19 12:20 35.680467 -115.286232 231 11340ft 169kts
28-Mar-19 12:21 35.649317 -115.329192 231 13225ft 168kts
28-Mar-19 12:22 35.618385 -115.371828 231 15117ft 166kts
28-Mar-19 12:23 35.587869 -115.413838 232 17003ft 165kts
28-Mar-19 12:24 35.558030 -115.454852 232 18870ft 162kts
28-Mar-19 12:25 35.527726 -115.496476 232 20766ft 164kts
28-Mar-19 12:26 35.497627 -115.537543 231 22631ft 161kts
28-Mar-19 12:27 35.467956 -115.577597 231 24485ft 157kts
28-Mar-19 12:28 35.438412 -115.617458 231 26011ft 173kts
28-Mar-19 12:29 35.401347 -115.667403 230 26163ft 226kts
28-Mar-19 12:30 35.356241 -115.727983 230 26155ft 249kts
28-Mar-19 12:31 35.308923 -115.791453 229 26162ft 253kts
28-Mar-19 12:32 35.261236 -115.855301 229 26175ft 254kts
28-Mar-19 12:33 35.212951 -115.918816 228 26189ft 255kts
28-Mar-19 12:34 35.163551 -115.981237 228 26189ft 255kts
28-Mar-19 12:35 35.114013 -116.043679 228 26189ft 255kts
28-Mar-19 12:36 35.064631 -116.105809 228 26187ft 255kts
28-Mar-19 12:37 35.015173 -116.167886 229 26191ft 255kts
28-Mar-19 12:38 34.965570 -116.230070 229 26200ft 256kts
28-Mar-19 12:39 34.915598 -116.292593 229 26201ft 258kts
28-Mar-19 12:40 34.867556 -116.353067 230 26201ft 260kts
28-Mar-19 12:41 34.817333 -116.417085 230 26190ft 262kts
28-Mar-19 12:42 34.767021 -116.481102 230 26188ft 262kts
28-Mar-19 12:43 34.715304 -116.546805 230 25372ft 278kts
28-Mar-19 12:44 34.658573 -116.608683 223 24310ft 281kts
28-Mar-19 12:45 34.598259 -116.667752 223 22539ft 273kts
28-Mar-19 12:46 34.539839 -116.724833 223 20897ft 267kts
28-Mar-19 12:47 34.485422 -116.781324 227 20183ft 239kts
28-Mar-19 12:48 34.436874 -116.837819 227 18989ft 249kts
28-Mar-19 12:49 34.386173 -116.896589 227 17418ft 251kts
28-Mar-19 12:50 34.336200 -116.954416 227 15992ft 243kts
28-Mar-19 12:51 34.287594 -117.010375 227 15508ft 248kts
28-Mar-19 12:52 34.233006 -117.058068 216 14510ft 244kts
28-Mar-19 12:53 34.173506 -117.100967 215 13032ft 244kts
28-Mar-19 12:54 34.116404 -117.131917 211 13016ft 211kts
28-Mar-19 12:55 34.063909 -117.160089 211 13023ft 203kts
28-Mar-19 12:56 34.037643 -117.211925 255 12682ft 200kts
28-Mar-19 12:58 34.021833 -117.280025 255 11456ft 219kts
28-Mar-19 12:59 34.005357 -117.350808 255 10082ft 215kts
28-Mar-19 13:00 33.989242 -117.419829 255 8783ft 212kts
28-Mar-19 13:01 33.973233 -117.488305 255 7505ft 214kts
28-Mar-19 13:02 33.956842 -117.558215 255 6189ft 219kts
28-Mar-19 13:03 33.940091 -117.629392 255 4843ft 222kts
28-Mar-19 13:04 33.923391 -117.700141 255 4016ft 215kts
28-Mar-19 13:05 33.874760 -117.742290 209 3503ft 227kts
28-Mar-19 13:06 33.824928 -117.773971 210 2980ft 150kts
28-Mar-19 13:07 33.791315 -117.795437 210 2423ft 136kts
28-Mar-19 13:08 33.760175 -117.815231 209 1925ft 119kts
28-Mar-19 13:09 33.734227 -117.831678 208 1405ft 95kts
28-Mar-19 13:10 33.712237 -117.845387 210 924ft 87kts
28-Mar-19 13:11 33.692041 -117.858603 209 331ft 77kts
28-Mar-19 13:12 33.673483 -117.870262 207 49ft 37kts
28-Mar-19 13:13 33.672042 -117.872369 251 50ft 0kts
28-Mar-19 13:14 33.672042 -117.872369 251 50ft 0kts
28-Mar-19 13:15 33.671608 -117.873542 207 52ft 0kts
28-Mar-19 13:16 33.671608 -117.873542 207 52ft 0kts
28-Mar-19 13:17 33.671608 -117.873542 207 52ft 0kts

Navigation Log

Ident Type
Flight plan parsing failed, navigation log unavailable